sensor_id;sensor_type;location;lat;lon;timestamp;pressure;altitude;pressure_sealevel;temperature
25514;BMP180;48128;54.242;10.280;2023-02-19T00:01:24;100975.00;;;3.10
25514;BMP180;48128;54.242;10.280;2023-02-19T00:03:53;100979.00;;;3.10
25514;BMP180;48128;54.242;10.280;2023-02-19T00:06:22;100984.00;;;3.10
25514;BMP180;48128;54.242;10.280;2023-02-19T00:08:49;100994.00;;;3.10
25514;BMP180;48128;54.242;10.280;2023-02-19T00:11:18;100985.00;;;3.10
25514;BMP180;48128;54.242;10.280;2023-02-19T00:13:48;100987.00;;;3.10
25514;BMP180;48128;54.242;10.280;2023-02-19T00:16:21;100994.00;;;3.20
25514;BMP180;48128;54.242;10.280;2023-02-19T00:18:48;100996.00;;;3.20
25514;BMP180;48128;54.242;10.280;2023-02-19T00:21:16;100991.00;;;3.20
25514;BMP180;48128;54.242;10.280;2023-02-19T00:23:46;100998.00;;;3.20
25514;BMP180;48128;54.242;10.280;2023-02-19T00:26:14;101001.00;;;3.20
25514;BMP180;48128;54.242;10.280;2023-02-19T00:28:48;101000.00;;;3.30
25514;BMP180;48128;54.242;10.280;2023-02-19T00:33:43;101002.00;;;3.30
25514;BMP180;48128;54.242;10.280;2023-02-19T00:36:10;101000.00;;;3.30
25514;BMP180;48128;54.242;10.280;2023-02-19T00:38:38;101002.00;;;3.30
25514;BMP180;48128;54.242;10.280;2023-02-19T00:41:06;100998.00;;;3.30
25514;BMP180;48128;54.242;10.280;2023-02-19T00:43:47;101004.00;;;3.30
25514;BMP180;48128;54.242;10.280;2023-02-19T00:46:19;100999.00;;;3.30
25514;BMP180;48128;54.242;10.280;2023-02-19T00:48:47;101014.00;;;3.40
25514;BMP180;48128;54.242;10.280;2023-02-19T00:51:14;100999.00;;;3.40
25514;BMP180;48128;54.242;10.280;2023-02-19T00:53:41;101004.00;;;3.40
25514;BMP180;48128;54.242;10.280;2023-02-19T00:56:08;101017.00;;;3.40
25514;BMP180;48128;54.242;10.280;2023-02-19T00:58:35;101009.00;;;3.40
25514;BMP180;48128;54.242;10.280;2023-02-19T01:01:02;101002.00;;;3.40
25514;BMP180;48128;54.242;10.280;2023-02-19T01:03:29;101010.00;;;3.40
25514;BMP180;48128;54.242;10.280;2023-02-19T01:05:56;101010.00;;;3.40
25514;BMP180;48128;54.242;10.280;2023-02-19T01:08:23;101010.00;;;3.40
25514;BMP180;48128;54.242;10.280;2023-02-19T01:10:50;100996.00;;;3.40
25514;BMP180;48128;54.242;10.280;2023-02-19T01:13:16;101014.00;;;3.40
25514;BMP180;48128;54.242;10.280;2023-02-19T01:15:43;101002.00;;;3.40
25514;BMP180;48128;54.242;10.280;2023-02-19T01:18:10;101012.00;;;3.40
25514;BMP180;48128;54.242;10.280;2023-02-19T01:20:42;101013.00;;;3.40
25514;BMP180;48128;54.242;10.280;2023-02-19T01:23:10;101010.00;;;3.40
25514;BMP180;48128;54.242;10.280;2023-02-19T01:25:41;101012.00;;;3.40
25514;BMP180;48128;54.242;10.280;2023-02-19T01:28:09;101016.00;;;3.40
25514;BMP180;48128;54.242;10.280;2023-02-19T01:30:37;101011.00;;;3.40
25514;BMP180;48128;54.242;10.280;2023-02-19T01:33:05;101017.00;;;3.40
25514;BMP180;48128;54.242;10.280;2023-02-19T01:35:33;101018.00;;;3.40
25514;BMP180;48128;54.242;10.280;2023-02-19T01:38:00;101015.00;;;3.40
25514;BMP180;48128;54.242;10.280;2023-02-19T01:40:27;101006.00;;;3.40
25514;BMP180;48128;54.242;10.280;2023-02-19T01:42:54;101016.00;;;3.40
25514;BMP180;48128;54.242;10.280;2023-02-19T01:48:06;101015.00;;;3.40
25514;BMP180;48128;54.242;10.280;2023-02-19T01:50:49;101016.00;;;3.40
25514;BMP180;48128;54.242;10.280;2023-02-19T01:53:18;101017.00;;;3.40
25514;BMP180;48128;54.242;10.280;2023-02-19T01:55:47;101015.00;;;3.40
25514;BMP180;48128;54.242;10.280;2023-02-19T01:58:15;101030.00;;;3.40
25514;BMP180;48128;54.242;10.280;2023-02-19T02:00:42;101025.00;;;3.40
25514;BMP180;48128;54.242;10.280;2023-02-19T02:03:09;101019.00;;;3.30
25514;BMP180;48128;54.242;10.280;2023-02-19T02:05:48;101024.00;;;3.30
25514;BMP180;48128;54.242;10.280;2023-02-19T02:08:16;101019.00;;;3.30
25514;BMP180;48128;54.242;10.280;2023-02-19T02:11:02;101017.00;;;3.30
25514;BMP180;48128;54.242;10.280;2023-02-19T02:13:32;101017.00;;;3.20
25514;BMP180;48128;54.242;10.280;2023-02-19T02:21:34;101004.00;;;3.20
25514;BMP180;48128;54.242;10.280;2023-02-19T02:26:44;101008.00;;;3.20
25514;BMP180;48128;54.242;10.280;2023-02-19T02:32:18;101004.00;;;3.10
25514;BMP180;48128;54.242;10.280;2023-02-19T02:34:48;100988.00;;;3.10
25514;BMP180;48128;54.242;10.280;2023-02-19T02:37:17;100998.00;;;3.00
25514;BMP180;48128;54.242;10.280;2023-02-19T02:39:44;100987.00;;;3.00
25514;BMP180;48128;54.242;10.280;2023-02-19T02:42:12;100986.00;;;3.00
25514;BMP180;48128;54.242;10.280;2023-02-19T02:44:55;100985.00;;;2.90
25514;BMP180;48128;54.242;10.280;2023-02-19T02:47:52;100985.00;;;2.90
25514;BMP180;48128;54.242;10.280;2023-02-19T02:50:33;100989.00;;;2.80
25514;BMP180;48128;54.242;10.280;2023-02-19T02:53:04;100982.00;;;2.80
25514;BMP180;48128;54.242;10.280;2023-02-19T02:55:52;100981.00;;;2.70
25514;BMP180;48128;54.242;10.280;2023-02-19T02:58:20;100988.00;;;2.70
25514;BMP180;48128;54.242;10.280;2023-02-19T03:00:51;100994.00;;;2.70
25514;BMP180;48128;54.242;10.280;2023-02-19T03:03:41;100992.00;;;2.60
25514;BMP180;48128;54.242;10.280;2023-02-19T03:06:09;100984.00;;;2.60
25514;BMP180;48128;54.242;10.280;2023-02-19T03:08:52;100993.00;;;2.60
25514;BMP180;48128;54.242;10.280;2023-02-19T03:11:20;100990.00;;;2.60
25514;BMP180;48128;54.242;10.280;2023-02-19T03:14:19;100995.00;;;2.60
25514;BMP180;48128;54.242;10.280;2023-02-19T03:17:09;100990.00;;;2.50
25514;BMP180;48128;54.242;10.280;2023-02-19T03:19:57;101002.00;;;2.50
25514;BMP180;48128;54.242;10.280;2023-02-19T03:22:33;101005.00;;;2.50
25514;BMP180;48128;54.242;10.280;2023-02-19T03:25:11;101000.00;;;2.40
25514;BMP180;48128;54.242;10.280;2023-02-19T03:27:58;101011.00;;;2.40
25514;BMP180;48128;54.242;10.280;2023-02-19T03:30:38;101007.00;;;2.40
25514;BMP180;48128;54.242;10.280;2023-02-19T03:35:41;101021.00;;;2.30
25514;BMP180;48128;54.242;10.280;2023-02-19T03:38:25;101033.00;;;2.30
25514;BMP180;48128;54.242;10.280;2023-02-19T03:41:09;101018.00;;;2.30
25514;BMP180;48128;54.242;10.280;2023-02-19T03:43:49;101022.00;;;2.30
25514;BMP180;48128;54.242;10.280;2023-02-19T03:46:22;101025.00;;;2.30
25514;BMP180;48128;54.242;10.280;2023-02-19T03:49:24;101030.00;;;2.20
25514;BMP180;48128;54.242;10.280;2023-02-19T03:54:33;101023.00;;;2.20
25514;BMP180;48128;54.242;10.280;2023-02-19T03:57:06;101040.00;;;2.10
25514;BMP180;48128;54.242;10.280;2023-02-19T03:59:47;101042.00;;;2.10
25514;BMP180;48128;54.242;10.280;2023-02-19T04:05:28;101064.00;;;2.10
25514;BMP180;48128;54.242;10.280;2023-02-19T04:08:02;101043.00;;;2.00
25514;BMP180;48128;54.242;10.280;2023-02-19T04:10:30;101065.00;;;2.00
25514;BMP180;48128;54.242;10.280;2023-02-19T04:13:05;101063.00;;;1.90
25514;BMP180;48128;54.242;10.280;2023-02-19T04:15:33;101070.00;;;1.90
25514;BMP180;48128;54.242;10.280;2023-02-19T04:18:04;101063.00;;;1.90
25514;BMP180;48128;54.242;10.280;2023-02-19T04:20:39;101070.00;;;1.80
25514;BMP180;48128;54.242;10.280;2023-02-19T04:23:07;101074.00;;;1.80
25514;BMP180;48128;54.242;10.280;2023-02-19T04:25:34;101077.00;;;1.80
25514;BMP180;48128;54.242;10.280;2023-02-19T04:28:02;101080.00;;;1.70
25514;BMP180;48128;54.242;10.280;2023-02-19T04:30:29;101089.00;;;1.70
25514;BMP180;48128;54.242;10.280;2023-02-19T04:32:56;101101.00;;;1.60
25514;BMP180;48128;54.242;10.280;2023-02-19T04:35:23;101093.00;;;1.60
25514;BMP180;48128;54.242;10.280;2023-02-19T04:37:50;101096.00;;;1.60
25514;BMP180;48128;54.242;10.280;2023-02-19T04:40:17;101116.00;;;1.60
25514;BMP180;48128;54.242;10.280;2023-02-19T04:42:44;101107.00;;;1.50
25514;BMP180;48128;54.242;10.280;2023-02-19T04:45:11;101102.00;;;1.50
25514;BMP180;48128;54.242;10.280;2023-02-19T04:47:37;101117.00;;;1.50
25514;BMP180;48128;54.242;10.280;2023-02-19T04:50:04;101108.00;;;1.50
25514;BMP180;48128;54.242;10.280;2023-02-19T04:52:31;101110.00;;;1.50
25514;BMP180;48128;54.242;10.280;2023-02-19T04:54:58;101103.00;;;1.50
25514;BMP180;48128;54.242;10.280;2023-02-19T04:57:25;101112.00;;;1.50
25514;BMP180;48128;54.242;10.280;2023-02-19T04:59:52;101096.00;;;1.50
25514;BMP180;48128;54.242;10.280;2023-02-19T05:02:19;101108.00;;;1.40
25514;BMP180;48128;54.242;10.280;2023-02-19T05:04:46;101114.00;;;1.40
25514;BMP180;48128;54.242;10.280;2023-02-19T05:07:13;101113.00;;;1.40
25514;BMP180;48128;54.242;10.280;2023-02-19T05:09:39;101104.00;;;1.40
25514;BMP180;48128;54.242;10.280;2023-02-19T05:12:06;101105.00;;;1.40
25514;BMP180;48128;54.242;10.280;2023-02-19T05:14:33;101103.00;;;1.40
25514;BMP180;48128;54.242;10.280;2023-02-19T05:17:00;101110.00;;;1.40
25514;BMP180;48128;54.242;10.280;2023-02-19T05:19:27;101124.00;;;1.40
25514;BMP180;48128;54.242;10.280;2023-02-19T05:21:54;101136.00;;;1.30
25514;BMP180;48128;54.242;10.280;2023-02-19T05:24:20;101124.00;;;1.30
25514;BMP180;48128;54.242;10.280;2023-02-19T05:26:47;101135.00;;;1.20
25514;BMP180;48128;54.242;10.280;2023-02-19T05:29:14;101141.00;;;1.20
25514;BMP180;48128;54.242;10.280;2023-02-19T05:31:41;101141.00;;;1.20
25514;BMP180;48128;54.242;10.280;2023-02-19T05:34:08;101148.00;;;1.20
25514;BMP180;48128;54.242;10.280;2023-02-19T05:36:36;101137.00;;;1.20
25514;BMP180;48128;54.242;10.280;2023-02-19T05:39:03;101148.00;;;1.20
25514;BMP180;48128;54.242;10.280;2023-02-19T05:41:32;101159.00;;;1.20
25514;BMP180;48128;54.242;10.280;2023-02-19T05:43:59;101146.00;;;1.20
25514;BMP180;48128;54.242;10.280;2023-02-19T05:46:27;101146.00;;;1.20
25514;BMP180;48128;54.242;10.280;2023-02-19T05:48:58;101154.00;;;1.20
25514;BMP180;48128;54.242;10.280;2023-02-19T05:51:25;101160.00;;;1.10
25514;BMP180;48128;54.242;10.280;2023-02-19T05:53:54;101161.00;;;1.20
25514;BMP180;48128;54.242;10.280;2023-02-19T05:58:52;101175.00;;;1.20
25514;BMP180;48128;54.242;10.280;2023-02-19T06:01:22;101183.00;;;1.20
25514;BMP180;48128;54.242;10.280;2023-02-19T06:03:49;101188.00;;;1.20
25514;BMP180;48128;54.242;10.280;2023-02-19T06:06:17;101200.00;;;1.30
25514;BMP180;48128;54.242;10.280;2023-02-19T06:08:44;101196.00;;;1.30
25514;BMP180;48128;54.242;10.280;2023-02-19T06:11:11;101197.00;;;1.30
25514;BMP180;48128;54.242;10.280;2023-02-19T06:13:38;101208.00;;;1.30
25514;BMP180;48128;54.242;10.280;2023-02-19T06:16:06;101201.00;;;1.20
25514;BMP180;48128;54.242;10.280;2023-02-19T06:18:33;101193.00;;;1.20
25514;BMP180;48128;54.242;10.280;2023-02-19T06:21:01;101220.00;;;1.20
25514;BMP180;48128;54.242;10.280;2023-02-19T06:23:28;101205.00;;;1.20
25514;BMP180;48128;54.242;10.280;2023-02-19T06:26:10;101218.00;;;1.20
25514;BMP180;48128;54.242;10.280;2023-02-19T06:28:37;101225.00;;;1.20
25514;BMP180;48128;54.242;10.280;2023-02-19T06:31:05;101211.00;;;1.30
25514;BMP180;48128;54.242;10.280;2023-02-19T06:33:32;101222.00;;;1.30
25514;BMP180;48128;54.242;10.280;2023-02-19T06:36:01;101215.00;;;1.30
25514;BMP180;48128;54.242;10.280;2023-02-19T06:38:29;101226.00;;;1.30
25514;BMP180;48128;54.242;10.280;2023-02-19T06:41:03;101239.00;;;1.40
25514;BMP180;48128;54.242;10.280;2023-02-19T06:43:31;101238.00;;;1.40
25514;BMP180;48128;54.242;10.280;2023-02-19T06:45:59;101238.00;;;1.40
25514;BMP180;48128;54.242;10.280;2023-02-19T06:48:27;101244.00;;;1.40
25514;BMP180;48128;54.242;10.280;2023-02-19T06:50:54;101252.00;;;1.40
25514;BMP180;48128;54.242;10.280;2023-02-19T06:53:22;101266.00;;;1.40
25514;BMP180;48128;54.242;10.280;2023-02-19T06:55:59;101268.00;;;1.50
25514;BMP180;48128;54.242;10.280;2023-02-19T06:58:27;101270.00;;;1.50
25514;BMP180;48128;54.242;10.280;2023-02-19T07:00:54;101278.00;;;1.50
25514;BMP180;48128;54.242;10.280;2023-02-19T07:03:21;101285.00;;;1.50
25514;BMP180;48128;54.242;10.280;2023-02-19T07:05:48;101292.00;;;1.50
25514;BMP180;48128;54.242;10.280;2023-02-19T07:08:15;101291.00;;;1.50
25514;BMP180;48128;54.242;10.280;2023-02-19T07:10:45;101307.00;;;1.50
25514;BMP180;48128;54.242;10.280;2023-02-19T07:13:12;101320.00;;;1.50
25514;BMP180;48128;54.242;10.280;2023-02-19T07:15:38;101305.00;;;1.50
25514;BMP180;48128;54.242;10.280;2023-02-19T07:18:05;101311.00;;;1.50
25514;BMP180;48128;54.242;10.280;2023-02-19T07:20:35;101320.00;;;1.50
25514;BMP180;48128;54.242;10.280;2023-02-19T07:23:03;101329.00;;;1.50
25514;BMP180;48128;54.242;10.280;2023-02-19T07:25:30;101327.00;;;1.50
25514;BMP180;48128;54.242;10.280;2023-02-19T07:27:57;101331.00;;;1.50
25514;BMP180;48128;54.242;10.280;2023-02-19T07:30:23;101326.00;;;1.50
25514;BMP180;48128;54.242;10.280;2023-02-19T07:32:50;101340.00;;;1.50
25514;BMP180;48128;54.242;10.280;2023-02-19T07:35:17;101351.00;;;1.50
25514;BMP180;48128;54.242;10.280;2023-02-19T07:37:44;101347.00;;;1.50
25514;BMP180;48128;54.242;10.280;2023-02-19T07:40:11;101356.00;;;1.50
25514;BMP180;48128;54.242;10.280;2023-02-19T07:42:38;101364.00;;;1.50
25514;BMP180;48128;54.242;10.280;2023-02-19T07:45:05;101358.00;;;1.50
25514;BMP180;48128;54.242;10.280;2023-02-19T07:47:32;101377.00;;;1.50
25514;BMP180;48128;54.242;10.280;2023-02-19T07:49:58;101379.00;;;1.50
25514;BMP180;48128;54.242;10.280;2023-02-19T07:52:26;101380.00;;;1.60
25514;BMP180;48128;54.242;10.280;2023-02-19T07:54:53;101381.00;;;1.60
25514;BMP180;48128;54.242;10.280;2023-02-19T07:57:20;101393.00;;;1.70
25514;BMP180;48128;54.242;10.280;2023-02-19T07:59:47;101399.00;;;1.70
25514;BMP180;48128;54.242;10.280;2023-02-19T08:02:18;101389.00;;;1.70
25514;BMP180;48128;54.242;10.280;2023-02-19T08:05:05;101399.00;;;1.80
25514;BMP180;48128;54.242;10.280;2023-02-19T08:07:35;101398.00;;;1.90
25514;BMP180;48128;54.242;10.280;2023-02-19T08:10:03;101411.00;;;2.00
25514;BMP180;48128;54.242;10.280;2023-02-19T08:12:58;101405.00;;;2.00
25514;BMP180;48128;54.242;10.280;2023-02-19T08:15:44;101405.00;;;2.10
25514;BMP180;48128;54.242;10.280;2023-02-19T08:18:12;101415.00;;;2.10
25514;BMP180;48128;54.242;10.280;2023-02-19T08:20:39;101402.00;;;2.20
25514;BMP180;48128;54.242;10.280;2023-02-19T08:23:06;101396.00;;;2.30
25514;BMP180;48128;54.242;10.280;2023-02-19T08:25:35;101417.00;;;2.40
25514;BMP180;48128;54.242;10.280;2023-02-19T08:28:02;101417.00;;;2.50
25514;BMP180;48128;54.242;10.280;2023-02-19T08:30:29;101426.00;;;2.50
25514;BMP180;48128;54.242;10.280;2023-02-19T08:32:57;101443.00;;;2.60
25514;BMP180;48128;54.242;10.280;2023-02-19T08:35:27;101429.00;;;2.70
25514;BMP180;48128;54.242;10.280;2023-02-19T08:37:56;101429.00;;;2.80
25514;BMP180;48128;54.242;10.280;2023-02-19T08:40:26;101451.00;;;2.90
25514;BMP180;48128;54.242;10.280;2023-02-19T08:42:53;101469.00;;;3.00
25514;BMP180;48128;54.242;10.280;2023-02-19T08:45:20;101469.00;;;3.10
25514;BMP180;48128;54.242;10.280;2023-02-19T08:47:48;101481.00;;;3.20
25514;BMP180;48128;54.242;10.280;2023-02-19T08:50:15;101481.00;;;3.30
25514;BMP180;48128;54.242;10.280;2023-02-19T08:52:42;101488.00;;;3.40
25514;BMP180;48128;54.242;10.280;2023-02-19T08:55:09;101486.00;;;3.40
25514;BMP180;48128;54.242;10.280;2023-02-19T08:57:36;101505.00;;;3.50
25514;BMP180;48128;54.242;10.280;2023-02-19T09:00:04;101498.00;;;3.60
25514;BMP180;48128;54.242;10.280;2023-02-19T09:02:32;101514.00;;;3.70
25514;BMP180;48128;54.242;10.280;2023-02-19T09:04:59;101518.00;;;3.80
25514;BMP180;48128;54.242;10.280;2023-02-19T09:07:26;101529.00;;;3.90
25514;BMP180;48128;54.242;10.280;2023-02-19T09:09:53;101530.00;;;4.00
25514;BMP180;48128;54.242;10.280;2023-02-19T09:12:20;101548.00;;;4.00
25514;BMP180;48128;54.242;10.280;2023-02-19T09:14:46;101554.00;;;4.10
25514;BMP180;48128;54.242;10.280;2023-02-19T09:17:13;101557.00;;;4.10
25514;BMP180;48128;54.242;10.280;2023-02-19T09:19:40;101550.00;;;4.10
25514;BMP180;48128;54.242;10.280;2023-02-19T09:22:07;101550.00;;;4.20
25514;BMP180;48128;54.242;10.280;2023-02-19T09:24:34;101562.00;;;4.30
25514;BMP180;48128;54.242;10.280;2023-02-19T09:27:01;101554.00;;;4.30
25514;BMP180;48128;54.242;10.280;2023-02-19T09:29:28;101557.00;;;4.40
25514;BMP180;48128;54.242;10.280;2023-02-19T09:31:56;101565.00;;;4.50
25514;BMP180;48128;54.242;10.280;2023-02-19T09:34:24;101587.00;;;4.50
25514;BMP180;48128;54.242;10.280;2023-02-19T09:36:52;101590.00;;;4.60
25514;BMP180;48128;54.242;10.280;2023-02-19T09:39:19;101589.00;;;4.70
25514;BMP180;48128;54.242;10.280;2023-02-19T09:41:48;101576.00;;;4.80
25514;BMP180;48128;54.242;10.280;2023-02-19T09:44:32;101567.00;;;4.90
25514;BMP180;48128;54.242;10.280;2023-02-19T09:47:00;101592.00;;;4.90
25514;BMP180;48128;54.242;10.280;2023-02-19T09:49:40;101612.00;;;5.00
25514;BMP180;48128;54.242;10.280;2023-02-19T09:52:46;101605.00;;;5.10
25514;BMP180;48128;54.242;10.280;2023-02-19T09:55:19;101618.00;;;5.20
25514;BMP180;48128;54.242;10.280;2023-02-19T09:57:49;101622.00;;;5.30
25514;BMP180;48128;54.242;10.280;2023-02-19T10:00:23;101619.00;;;5.30
25514;BMP180;48128;54.242;10.280;2023-02-19T10:03:04;101630.00;;;5.40
25514;BMP180;48128;54.242;10.280;2023-02-19T10:05:32;101639.00;;;5.50
25514;BMP180;48128;54.242;10.280;2023-02-19T10:08:00;101682.00;;;5.60
25514;BMP180;48128;54.242;10.280;2023-02-19T10:10:34;101687.00;;;5.70
25514;BMP180;48128;54.242;10.280;2023-02-19T10:13:21;101709.00;;;5.70
25514;BMP180;48128;54.242;10.280;2023-02-19T10:15:59;101712.00;;;5.70
25514;BMP180;48128;54.242;10.280;2023-02-19T10:18:28;101713.00;;;5.70
25514;BMP180;48128;54.242;10.280;2023-02-19T10:20:57;101715.00;;;5.70
25514;BMP180;48128;54.242;10.280;2023-02-19T10:23:24;101725.00;;;5.80
25514;BMP180;48128;54.242;10.280;2023-02-19T10:25:52;101734.00;;;5.90
25514;BMP180;48128;54.242;10.280;2023-02-19T10:28:27;101720.00;;;5.90
25514;BMP180;48128;54.242;10.280;2023-02-19T10:30:56;101736.00;;;6.00
25514;BMP180;48128;54.242;10.280;2023-02-19T10:33:24;101729.00;;;6.10
25514;BMP180;48128;54.242;10.280;2023-02-19T10:35:58;101733.00;;;6.20
25514;BMP180;48128;54.242;10.280;2023-02-19T10:41:07;101733.00;;;6.30
25514;BMP180;48128;54.242;10.280;2023-02-19T10:43:40;101736.00;;;6.30
25514;BMP180;48128;54.242;10.280;2023-02-19T10:46:15;101720.00;;;6.50
25514;BMP180;48128;54.242;10.280;2023-02-19T10:49:00;101744.00;;;6.60
25514;BMP180;48128;54.242;10.280;2023-02-19T10:51:37;101769.00;;;6.70
25514;BMP180;48128;54.242;10.280;2023-02-19T10:54:15;101767.00;;;6.80
25514;BMP180;48128;54.242;10.280;2023-02-19T10:56:42;101766.00;;;6.80
25514;BMP180;48128;54.242;10.280;2023-02-19T10:59:22;101746.00;;;6.80
25514;BMP180;48128;54.242;10.280;2023-02-19T11:02:00;101731.00;;;6.90
25514;BMP180;48128;54.242;10.280;2023-02-19T11:04:29;101762.00;;;7.00
25514;BMP180;48128;54.242;10.280;2023-02-19T11:07:10;101735.00;;;7.20
25514;BMP180;48128;54.242;10.280;2023-02-19T11:09:40;101767.00;;;7.30
25514;BMP180;48128;54.242;10.280;2023-02-19T11:12:11;101769.00;;;7.50
25514;BMP180;48128;54.242;10.280;2023-02-19T11:14:42;101769.00;;;7.50
25514;BMP180;48128;54.242;10.280;2023-02-19T11:17:30;101797.00;;;7.50
25514;BMP180;48128;54.242;10.280;2023-02-19T11:19:59;101788.00;;;7.50
25514;BMP180;48128;54.242;10.280;2023-02-19T11:24:55;101793.00;;;7.60
25514;BMP180;48128;54.242;10.280;2023-02-19T11:27:25;101809.00;;;7.70
25514;BMP180;48128;54.242;10.280;2023-02-19T11:29:52;101798.00;;;7.80
25514;BMP180;48128;54.242;10.280;2023-02-19T11:34:46;101817.00;;;8.00
25514;BMP180;48128;54.242;10.280;2023-02-19T11:37:17;101803.00;;;8.00
25514;BMP180;48128;54.242;10.280;2023-02-19T11:39:47;101807.00;;;8.00
25514;BMP180;48128;54.242;10.280;2023-02-19T11:53:03;101839.00;;;8.20
25514;BMP180;48128;54.242;10.280;2023-02-19T11:55:50;101827.00;;;8.20
25514;BMP180;48128;54.242;10.280;2023-02-19T12:04:40;101810.00;;;8.50
25514;BMP180;48128;54.242;10.280;2023-02-19T12:15:21;101818.00;;;8.50
25514;BMP180;48128;54.242;10.280;2023-02-19T12:31:14;101838.00;;;8.40
25514;BMP180;48128;54.242;10.280;2023-02-19T12:33:58;101820.00;;;8.50
25514;BMP180;48128;54.242;10.280;2023-02-19T12:36:39;101810.00;;;8.70
25514;BMP180;48128;54.242;10.280;2023-02-19T12:44:20;101808.00;;;8.90
25514;BMP180;48128;54.242;10.280;2023-02-19T12:46:57;101798.00;;;8.80
25514;BMP180;48128;54.242;10.280;2023-02-19T12:49:34;101821.00;;;8.70
25514;BMP180;48128;54.242;10.280;2023-02-19T12:52:08;101805.00;;;8.80
25514;BMP180;48128;54.242;10.280;2023-02-19T12:54:41;101803.00;;;8.80
25514;BMP180;48128;54.242;10.280;2023-02-19T12:57:10;101792.00;;;8.90
25514;BMP180;48128;54.242;10.280;2023-02-19T12:59:48;101795.00;;;8.90
25514;BMP180;48128;54.242;10.280;2023-02-19T13:02:40;101779.00;;;8.70
25514;BMP180;48128;54.242;10.280;2023-02-19T13:05:41;101798.00;;;8.80
25514;BMP180;48128;54.242;10.280;2023-02-19T13:08:10;101783.00;;;8.70
25514;BMP180;48128;54.242;10.280;2023-02-19T13:10:43;101763.00;;;8.70
25514;BMP180;48128;54.242;10.280;2023-02-19T13:13:16;101757.00;;;8.70
25514;BMP180;48128;54.242;10.280;2023-02-19T13:15:46;101766.00;;;8.70
25514;BMP180;48128;54.242;10.280;2023-02-19T13:18:19;101753.00;;;8.70
25514;BMP180;48128;54.242;10.280;2023-02-19T13:20:46;101777.00;;;8.70
25514;BMP180;48128;54.242;10.280;2023-02-19T13:23:36;101751.00;;;8.70
25514;BMP180;48128;54.242;10.280;2023-02-19T13:26:36;101748.00;;;8.70
25514;BMP180;48128;54.242;10.280;2023-02-19T13:37:30;101746.00;;;8.70
25514;BMP180;48128;54.242;10.280;2023-02-19T13:40:02;101741.00;;;8.60
25514;BMP180;48128;54.242;10.280;2023-02-19T13:42:34;101736.00;;;8.40
25514;BMP180;48128;54.242;10.280;2023-02-19T13:45:02;101755.00;;;8.30
25514;BMP180;48128;54.242;10.280;2023-02-19T13:50:31;101753.00;;;8.40
25514;BMP180;48128;54.242;10.280;2023-02-19T13:53:00;101772.00;;;8.30
25514;BMP180;48128;54.242;10.280;2023-02-19T14:00:59;101769.00;;;8.20
25514;BMP180;48128;54.242;10.280;2023-02-19T14:06:10;101763.00;;;8.20
25514;BMP180;48128;54.242;10.280;2023-02-19T14:08:52;101757.00;;;8.30
25514;BMP180;48128;54.242;10.280;2023-02-19T14:14:44;101755.00;;;8.20
25514;BMP180;48128;54.242;10.280;2023-02-19T14:17:25;101719.00;;;8.20
25514;BMP180;48128;54.242;10.280;2023-02-19T14:20:11;101732.00;;;8.20
25514;BMP180;48128;54.242;10.280;2023-02-19T14:28:27;101699.00;;;7.90
25514;BMP180;48128;54.242;10.280;2023-02-19T14:31:02;101701.00;;;7.80
25514;BMP180;48128;54.242;10.280;2023-02-19T14:33:30;101674.00;;;7.70
25514;BMP180;48128;54.242;10.280;2023-02-19T14:36:05;101682.00;;;7.60
25514;BMP180;48128;54.242;10.280;2023-02-19T14:38:38;101654.00;;;7.50
25514;BMP180;48128;54.242;10.280;2023-02-19T14:41:07;101644.00;;;7.50
25514;BMP180;48128;54.242;10.280;2023-02-19T14:43:36;101644.00;;;7.50
25514;BMP180;48128;54.242;10.280;2023-02-19T14:48:44;101630.00;;;7.30
25514;BMP180;48128;54.242;10.280;2023-02-19T14:53:55;101638.00;;;7.20
25514;BMP180;48128;54.242;10.280;2023-02-19T14:56:28;101663.00;;;7.10
25514;BMP180;48128;54.242;10.280;2023-02-19T14:59:22;101649.00;;;7.10
25514;BMP180;48128;54.242;10.280;2023-02-19T15:01:53;101664.00;;;7.00
25514;BMP180;48128;54.242;10.280;2023-02-19T15:04:22;101676.00;;;7.00
25514;BMP180;48128;54.242;10.280;2023-02-19T15:06:53;101677.00;;;6.90
25514;BMP180;48128;54.242;10.280;2023-02-19T15:09:29;101673.00;;;6.80
25514;BMP180;48128;54.242;10.280;2023-02-19T15:11:58;101676.00;;;6.80
25514;BMP180;48128;54.242;10.280;2023-02-19T15:14:25;101663.00;;;6.80
25514;BMP180;48128;54.242;10.280;2023-02-19T15:17:01;101664.00;;;6.70
25514;BMP180;48128;54.242;10.280;2023-02-19T15:19:29;101668.00;;;6.70
25514;BMP180;48128;54.242;10.280;2023-02-19T15:21:58;101647.00;;;6.70
25514;BMP180;48128;54.242;10.280;2023-02-19T15:24:28;101640.00;;;6.60
25514;BMP180;48128;54.242;10.280;2023-02-19T15:26:55;101650.00;;;6.60
25514;BMP180;48128;54.242;10.280;2023-02-19T15:29:25;101656.00;;;6.50
25514;BMP180;48128;54.242;10.280;2023-02-19T15:31:55;101675.00;;;6.50
25514;BMP180;48128;54.242;10.280;2023-02-19T15:34:27;101650.00;;;6.40
25514;BMP180;48128;54.242;10.280;2023-02-19T15:37:05;101668.00;;;6.40
25514;BMP180;48128;54.242;10.280;2023-02-19T15:39:34;101654.00;;;6.30
25514;BMP180;48128;54.242;10.280;2023-02-19T15:42:03;101639.00;;;6.30
25514;BMP180;48128;54.242;10.280;2023-02-19T15:47:23;101637.00;;;6.20
25514;BMP180;48128;54.242;10.280;2023-02-19T15:49:59;101613.00;;;6.10
25514;BMP180;48128;54.242;10.280;2023-02-19T15:55:45;101597.00;;;6.00
25514;BMP180;48128;54.242;10.280;2023-02-19T15:58:37;101603.00;;;6.00
25514;BMP180;48128;54.242;10.280;2023-02-19T16:03:39;101607.00;;;5.90
25514;BMP180;48128;54.242;10.280;2023-02-19T16:06:11;101593.00;;;5.90
25514;BMP180;48128;54.242;10.280;2023-02-19T16:08:58;101598.00;;;5.90
25514;BMP180;48128;54.242;10.280;2023-02-19T16:14:22;101595.00;;;5.90
25514;BMP180;48128;54.242;10.280;2023-02-19T16:16:52;101597.00;;;5.90
25514;BMP180;48128;54.242;10.280;2023-02-19T16:19:27;101591.00;;;5.80
25514;BMP180;48128;54.242;10.280;2023-02-19T16:21:55;101602.00;;;5.80
25514;BMP180;48128;54.242;10.280;2023-02-19T16:26:54;101601.00;;;5.70